createdAt,value
2023-01-03T00:01:23.390Z,60.80
2023-01-03T00:03:50.488Z,47.50
2023-01-03T00:06:26.091Z,44.70
2023-01-03T00:08:54.420Z,43.50
2023-01-03T00:11:44.001Z,41.90
2023-01-03T00:14:14.549Z,39.30
2023-01-03T00:16:41.511Z,42.20
2023-01-03T00:19:09.902Z,46.20
2023-01-03T00:21:37.034Z,51.10
2023-01-03T00:24:05.129Z,54.70
2023-01-03T00:26:32.494Z,52.30
2023-01-03T00:28:59.705Z,54.30
2023-01-03T00:31:26.799Z,57.40
2023-01-03T00:33:53.545Z,60.10
2023-01-03T00:36:20.515Z,61.20
2023-01-03T00:38:47.413Z,62.00
2023-01-03T00:41:17.357Z,62.50
2023-01-03T00:43:45.657Z,63.30
2023-01-03T00:46:13.966Z,62.90
2023-01-03T00:48:40.870Z,64.40
2023-01-03T00:51:10.292Z,64.10
2023-01-03T00:53:38.944Z,64.90
2023-01-03T00:56:16.891Z,65.60
2023-01-03T00:58:43.770Z,65.50
2023-01-03T01:01:21.649Z,66.10
2023-01-03T01:03:56.808Z,67.00
2023-01-03T01:06:28.075Z,68.00
2023-01-03T01:08:57.501Z,68.80
2023-01-03T01:11:25.303Z,68.90
2023-01-03T01:13:52.786Z,71.40
2023-01-03T01:16:22.850Z,73.50
2023-01-03T01:18:51.037Z,75.30
2023-01-03T01:21:21.119Z,76.40
2023-01-03T01:23:48.192Z,78.20
2023-01-03T01:26:17.214Z,79.00
2023-01-03T01:28:44.299Z,80.70
2023-01-03T01:31:15.372Z,82.50
2023-01-03T01:33:42.797Z,82.30
2023-01-03T01:36:20.723Z,82.10
2023-01-03T01:38:52.869Z,81.80
2023-01-03T01:41:39.578Z,82.80
2023-01-03T01:44:25.613Z,83.60
2023-01-03T01:46:52.955Z,83.70
2023-01-03T01:49:24.708Z,83.90
2023-01-03T01:51:51.782Z,84.10
2023-01-03T01:54:19.500Z,84.80
2023-01-03T01:56:52.915Z,85.00
2023-01-03T01:59:19.638Z,84.90
2023-01-03T02:01:48.389Z,85.30
2023-01-03T02:04:23.116Z,85.40
2023-01-03T02:06:51.005Z,85.50
2023-01-03T02:09:18.122Z,86.10
2023-01-03T02:11:50.770Z,86.30
2023-01-03T02:14:32.618Z,86.80
2023-01-03T02:17:40.323Z,86.90
2023-01-03T02:20:19.018Z,86.80
2023-01-03T02:23:17.183Z,93.60
2023-01-03T02:26:08.658Z,93.80
2023-01-03T02:28:53.420Z,93.80
2023-01-03T02:31:42.165Z,93.90
2023-01-03T02:34:36.926Z,93.90
2023-01-03T02:37:17.170Z,94.10
2023-01-03T02:39:48.721Z,94.30
2023-01-03T02:42:44.489Z,94.30
2023-01-03T02:45:20.277Z,94.40
2023-01-03T02:48:11.347Z,94.40
2023-01-03T02:50:47.632Z,94.20
2023-01-03T02:53:19.371Z,94.20
2023-01-03T02:55:49.524Z,94.20
2023-01-03T02:58:22.223Z,94.20
2023-01-03T03:00:53.458Z,94.30
2023-01-03T03:03:25.404Z,94.40
2023-01-03T03:05:57.773Z,94.40
2023-01-03T03:08:24.558Z,94.50
2023-01-03T03:11:13.199Z,94.60
2023-01-03T03:14:04.561Z,94.70
2023-01-03T03:16:51.686Z,94.70
2023-01-03T03:19:53.990Z,94.70
2023-01-03T03:23:00.915Z,94.80
2023-01-03T03:25:37.729Z,94.90
2023-01-03T03:28:33.286Z,95.00
2023-01-03T03:31:14.767Z,95.00
2023-01-03T03:34:03.589Z,95.00
2023-01-03T03:36:46.494Z,95.00
2023-01-03T03:39:34.276Z,94.90
2023-01-03T03:42:47.446Z,94.80
2023-01-03T03:45:39.793Z,94.70
2023-01-03T03:48:19.753Z,94.70
2023-01-03T03:51:14.185Z,94.70
2023-01-03T03:53:44.062Z,94.70
2023-01-03T03:56:14.362Z,94.70
2023-01-03T03:58:43.450Z,94.70
2023-01-03T04:01:14.118Z,94.70
2023-01-03T04:03:44.281Z,94.80
2023-01-03T04:06:17.389Z,94.90
2023-01-03T04:08:44.598Z,94.90
2023-01-03T04:11:11.491Z,94.90
2023-01-03T04:13:38.852Z,95.00
2023-01-03T04:16:07.127Z,95.00
2023-01-03T04:18:34.473Z,95.00
2023-01-03T04:21:01.134Z,95.00
2023-01-03T04:23:27.818Z,95.00
2023-01-03T04:25:54.487Z,95.10
2023-01-03T04:28:21.214Z,95.10
2023-01-03T04:30:48.150Z,95.10
2023-01-03T04:33:15.167Z,95.20
2023-01-03T04:35:41.916Z,95.20
2023-01-03T04:38:08.811Z,95.20
2023-01-03T04:40:38.489Z,95.20
2023-01-03T04:43:23.845Z,95.30
2023-01-03T04:45:51.402Z,95.30
2023-01-03T04:48:18.418Z,95.40
2023-01-03T04:50:53.387Z,95.30
2023-01-03T04:53:20.765Z,95.30
2023-01-03T04:55:48.338Z,95.30
2023-01-03T04:58:15.241Z,95.30
2023-01-03T05:00:42.014Z,95.40
2023-01-03T05:03:08.785Z,95.40
2023-01-03T05:05:37.784Z,95.40
2023-01-03T05:08:06.499Z,95.40
2023-01-03T05:10:33.494Z,95.40
2023-01-03T05:13:00.781Z,95.40
2023-01-03T05:15:34.448Z,95.30
2023-01-03T05:18:01.197Z,95.40
2023-01-03T05:20:48.777Z,95.40
2023-01-03T05:23:35.474Z,95.40
2023-01-03T05:26:10.075Z,95.40
2023-01-03T05:28:37.097Z,95.40
2023-01-03T05:31:03.862Z,95.40
2023-01-03T05:33:30.645Z,95.40
2023-01-03T05:35:58.179Z,95.40
2023-01-03T05:38:25.017Z,95.40
2023-01-03T05:40:51.787Z,95.40
2023-01-03T05:43:18.706Z,95.40
2023-01-03T05:45:52.796Z,95.40
2023-01-03T05:48:21.148Z,95.40
2023-01-03T05:50:49.833Z,95.40
2023-01-03T05:53:17.075Z,95.40
2023-01-03T05:55:43.866Z,95.40
2023-01-03T05:58:11.845Z,95.40
2023-01-03T06:00:38.620Z,95.30
2023-01-03T06:03:05.411Z,95.30
2023-01-03T06:05:32.140Z,95.30
2023-01-03T06:08:02.670Z,95.30
2023-01-03T06:10:29.800Z,95.30
2023-01-03T06:12:57.214Z,95.30
2023-01-03T06:15:24.024Z,95.30
2023-01-03T06:18:02.234Z,95.30
2023-01-03T06:20:29.523Z,95.20
2023-01-03T06:22:56.921Z,95.20
2023-01-03T06:25:23.733Z,95.20
2023-01-03T06:27:50.682Z,95.20
2023-01-03T06:30:17.593Z,95.20
2023-01-03T06:32:45.651Z,95.20
2023-01-03T06:35:12.714Z,95.20
2023-01-03T06:37:39.777Z,95.20
2023-01-03T06:40:07.456Z,95.10
2023-01-03T06:42:42.559Z,95.10
2023-01-03T06:45:29.936Z,95.20
2023-01-03T06:48:15.598Z,95.20
2023-01-03T06:51:01.889Z,95.10
2023-01-03T06:53:35.706Z,95.20
2023-01-03T06:56:03.387Z,95.20
2023-01-03T06:58:30.181Z,95.10
2023-01-03T07:00:58.397Z,95.10
2023-01-03T07:03:25.300Z,95.20
2023-01-03T07:05:52.408Z,95.20
2023-01-03T07:08:19.244Z,95.20
2023-01-03T07:10:46.212Z,95.20
2023-01-03T07:13:31.826Z,95.30
2023-01-03T07:15:58.999Z,95.20
2023-01-03T07:18:26.378Z,95.30
2023-01-03T07:20:53.126Z,95.30
2023-01-03T07:23:19.818Z,95.30
2023-01-03T07:25:46.591Z,95.30
2023-01-03T07:28:14.874Z,95.30
2023-01-03T07:30:43.971Z,95.30
2023-01-03T07:33:13.101Z,95.30
2023-01-03T07:35:39.792Z,95.30
2023-01-03T07:38:07.406Z,95.30
2023-01-03T07:40:34.303Z,95.30
2023-01-03T07:43:19.863Z,95.30
2023-01-03T07:45:47.650Z,95.30
2023-01-03T07:48:14.956Z,95.30
2023-01-03T07:50:42.263Z,95.30
2023-01-03T07:53:10.062Z,95.30
2023-01-03T07:55:37.685Z,95.30
2023-01-03T07:58:04.601Z,95.30
2023-01-03T08:00:31.486Z,95.30
2023-01-03T08:02:58.455Z,95.30
2023-01-03T08:05:25.917Z,95.30
2023-01-03T08:07:53.255Z,95.30
2023-01-03T08:10:39.738Z,95.30
2023-01-03T08:13:18.408Z,95.40
2023-01-03T08:15:49.482Z,95.40
2023-01-03T08:18:19.183Z,95.30
2023-01-03T08:20:46.455Z,95.40
2023-01-03T08:23:13.361Z,95.30
2023-01-03T08:25:40.450Z,95.30
2023-01-03T08:28:08.860Z,95.40
2023-01-03T08:30:41.402Z,95.40
2023-01-03T08:33:10.743Z,95.40
2023-01-03T08:35:39.411Z,95.40
2023-01-03T08:38:10.982Z,95.40
2023-01-03T08:40:42.173Z,95.40
2023-01-03T08:43:10.928Z,95.40
2023-01-03T08:45:38.996Z,95.40
2023-01-03T08:48:07.555Z,95.40
2023-01-03T08:50:34.990Z,95.40
2023-01-03T08:53:01.910Z,95.50
2023-01-03T08:55:28.647Z,95.50
2023-01-03T08:57:55.330Z,95.50
2023-01-03T09:00:22.153Z,95.50
2023-01-03T09:02:49.107Z,95.50
2023-01-03T09:05:16.917Z,95.50
2023-01-03T09:07:43.924Z,95.50
2023-01-03T09:10:11.530Z,95.50
2023-01-03T09:12:38.309Z,95.50
2023-01-03T09:15:05.703Z,95.60
2023-01-03T09:17:32.411Z,95.60
2023-01-03T09:19:59.198Z,95.60
2023-01-03T09:22:26.004Z,95.60
2023-01-03T09:24:52.847Z,95.60
2023-01-03T09:27:19.576Z,95.60
2023-01-03T09:29:46.782Z,95.60
2023-01-03T09:32:13.634Z,95.60
2023-01-03T09:34:40.354Z,95.60
2023-01-03T09:37:07.060Z,95.60
2023-01-03T09:39:33.809Z,95.60
2023-01-03T09:42:20.013Z,95.60
2023-01-03T09:44:47.090Z,95.60
2023-01-03T09:47:24.007Z,95.60
2023-01-03T09:50:26.564Z,90.90
2023-01-03T09:53:03.207Z,90.90
2023-01-03T09:56:10.063Z,90.70
2023-01-03T09:58:55.623Z,90.60
2023-01-03T10:01:49.839Z,90.50
2023-01-03T10:04:43.990Z,90.30
2023-01-03T10:07:10.691Z,90.10
2023-01-03T10:10:12.294Z,89.10
2023-01-03T10:13:07.765Z,88.20
2023-01-03T10:16:01.525Z,82.00
2023-01-03T10:18:49.812Z,81.40
2023-01-03T10:21:42.054Z,79.20
2023-01-03T10:24:24.558Z,76.70
2023-01-03T10:27:25.068Z,70.90
2023-01-03T10:29:56.658Z,69.50
2023-01-03T10:32:32.271Z,63.50
2023-01-03T10:35:03.222Z,39.00
2023-01-03T10:37:29.905Z,29.20
2023-01-03T10:40:04.563Z,29.30
2023-01-03T10:42:33.998Z,21.10
2023-01-03T10:45:05.395Z,13.20
2023-01-03T10:47:32.178Z,8.60
2023-01-03T10:50:03.980Z,4.50
2023-01-03T10:52:38.394Z,3.00
2023-01-03T10:55:17.068Z,1.00
2023-01-03T10:57:49.617Z,1.00
2023-01-03T11:00:26.923Z,1.10
2023-01-03T11:02:54.962Z,1.00
2023-01-03T11:05:24.874Z,1.00
2023-01-03T11:08:01.580Z,1.00
2023-01-03T11:10:49.133Z,1.00
2023-01-03T11:13:29.170Z,1.00
2023-01-03T11:15:58.255Z,1.00
2023-01-03T11:18:29.002Z,1.00
2023-01-03T11:21:26.165Z,1.00
2023-01-03T11:24:06.826Z,1.00
2023-01-03T11:26:51.081Z,1.00
2023-01-03T11:29:35.513Z,1.00
2023-01-03T11:32:19.412Z,1.00
2023-01-03T11:35:24.776Z,1.00
2023-01-03T11:38:16.652Z,1.00
2023-01-03T11:40:46.379Z,1.00
2023-01-03T11:43:35.189Z,1.00
2023-01-03T11:46:30.143Z,1.00
2023-01-03T11:49:30.827Z,1.00
2023-01-03T11:52:19.776Z,1.00
2023-01-03T11:54:58.386Z,1.00
2023-01-03T11:57:51.346Z,1.00
2023-01-03T12:00:20.814Z,1.00
2023-01-03T12:02:47.670Z,1.00
2023-01-03T12:05:45.585Z,1.00
2023-01-03T12:08:42.142Z,1.00
2023-01-03T12:11:43.049Z,1.00
2023-01-03T12:14:17.861Z,1.00
2023-01-03T12:17:07.912Z,1.00
2023-01-03T12:19:46.010Z,1.00
2023-01-03T12:22:37.451Z,1.00
2023-01-03T12:25:19.232Z,1.00
2023-01-03T12:28:00.409Z,1.00
2023-01-03T12:30:35.473Z,1.00
2023-01-03T12:33:22.413Z,1.00
2023-01-03T12:36:20.899Z,1.00
2023-01-03T12:39:01.372Z,1.00
2023-01-03T12:41:46.184Z,1.00
2023-01-03T12:44:24.442Z,1.00
2023-01-03T12:46:55.208Z,1.00
2023-01-03T12:50:03.465Z,1.00
2023-01-03T12:52:32.418Z,1.00
2023-01-03T12:55:08.443Z,1.00
2023-01-03T12:57:50.640Z,1.00
2023-01-03T13:00:41.233Z,1.00
2023-01-03T13:03:22.600Z,1.00
2023-01-03T13:06:17.391Z,1.00
2023-01-03T13:08:53.227Z,1.00
2023-01-03T13:11:41.461Z,1.00
2023-01-03T13:14:23.313Z,1.00
2023-01-03T13:16:52.129Z,1.00
2023-01-03T13:19:21.843Z,1.00
2023-01-03T13:21:51.433Z,1.00
2023-01-03T13:24:40.062Z,1.00
2023-01-03T13:27:24.783Z,1.00
2023-01-03T13:29:58.594Z,1.00
2023-01-03T13:32:36.261Z,1.00
2023-01-03T13:35:04.664Z,1.00
2023-01-03T13:37:46.393Z,1.00
2023-01-03T13:40:52.083Z,1.00
2023-01-03T13:43:21.768Z,1.00
2023-01-03T13:45:49.845Z,1.00
2023-01-03T13:48:28.478Z,1.00
2023-01-03T13:51:17.075Z,1.00
2023-01-03T13:54:12.999Z,1.00
2023-01-03T13:56:45.476Z,1.00
2023-01-03T13:59:15.144Z,1.00
2023-01-03T14:01:47.995Z,1.00
2023-01-03T14:04:38.629Z,1.00
2023-01-03T14:07:37.798Z,1.00
2023-01-03T14:10:39.487Z,1.00
2023-01-03T14:13:08.881Z,1.00
2023-01-03T14:15:35.670Z,1.00
2023-01-03T14:18:21.567Z,1.00
2023-01-03T14:20:55.180Z,1.00
2023-01-03T14:23:58.450Z,1.00
2023-01-03T14:26:16.378Z,1.00
2023-01-03T14:28:51.599Z,1.00
2023-01-03T14:31:25.400Z,1.00
2023-01-03T14:34:01.296Z,1.00
2023-01-03T14:36:28.543Z,1.00
2023-01-03T14:39:00.813Z,1.00
2023-01-03T14:41:37.883Z,1.00
2023-01-03T14:44:16.511Z,1.00
2023-01-03T14:46:55.601Z,1.00
2023-01-03T14:49:31.451Z,1.00
2023-01-03T14:52:26.294Z,1.00
2023-01-03T14:55:03.531Z,1.00
2023-01-03T14:57:31.176Z,1.00
2023-01-03T15:00:01.140Z,1.00
2023-01-03T15:02:34.175Z,1.00
2023-01-03T15:05:02.591Z,1.00
2023-01-03T15:07:37.379Z,1.00
2023-01-03T15:10:31.215Z,1.00
2023-01-03T15:13:04.627Z,1.00
2023-01-03T15:15:38.258Z,1.00
2023-01-03T15:18:09.716Z,1.00
2023-01-03T15:20:39.909Z,1.00
2023-01-03T15:23:07.160Z,1.00
2023-01-03T15:25:41.946Z,1.00
2023-01-03T15:28:29.813Z,1.00
2023-01-03T15:31:11.780Z,1.00
2023-01-03T15:33:38.644Z,1.00
2023-01-03T15:36:16.429Z,1.00
2023-01-03T15:38:47.246Z,1.00
2023-01-03T15:41:45.155Z,1.00
2023-01-03T15:44:12.723Z,1.00
2023-01-03T15:46:45.291Z,1.00
2023-01-03T15:49:17.949Z,1.00
2023-01-03T15:51:44.690Z,1.00
2023-01-03T15:54:13.689Z,5.60
2023-01-03T15:57:00.895Z,7.40
2023-01-03T15:59:29.938Z,9.30
2023-01-03T16:01:57.132Z,10.30
2023-01-03T16:04:24.276Z,11.60
2023-01-03T16:06:52.741Z,13.60
2023-01-03T16:09:20.702Z,13.30
2023-01-03T16:11:51.629Z,13.10
2023-01-03T16:14:27.911Z,13.90
2023-01-03T16:16:56.912Z,15.20
2023-01-03T16:19:25.839Z,14.00
2023-01-03T16:22:32.856Z,14.60
2023-01-03T16:24:42.022Z,15.00
2023-01-03T16:27:17.111Z,16.30
2023-01-03T16:29:43.983Z,17.60
2023-01-03T16:32:24.652Z,17.70
2023-01-03T16:34:52.015Z,19.00
2023-01-03T16:37:18.781Z,21.60
2023-01-03T16:39:48.328Z,23.30
2023-01-03T16:42:15.826Z,26.00
2023-01-03T16:44:46.538Z,28.90
2023-01-03T16:47:22.659Z,30.00
2023-01-03T16:50:01.969Z,29.10
2023-01-03T16:52:37.524Z,29.50
2023-01-03T16:55:16.321Z,28.90
2023-01-03T16:57:44.448Z,26.80
2023-01-03T17:00:18.769Z,28.60
2023-01-03T17:02:46.334Z,29.10
2023-01-03T17:05:14.374Z,29.10
2023-01-03T17:07:43.635Z,31.20
2023-01-03T17:10:27.556Z,36.50
2023-01-03T17:12:55.705Z,37.70
2023-01-03T17:15:22.385Z,39.90
2023-01-03T17:17:49.130Z,43.10
2023-01-03T17:20:20.442Z,46.80
2023-01-03T17:22:51.729Z,48.80
2023-01-03T17:25:18.655Z,47.10
2023-01-03T17:27:58.263Z,46.70
2023-01-03T17:30:27.816Z,47.60
2023-01-03T17:32:55.238Z,45.60
2023-01-03T17:35:22.049Z,48.80
2023-01-03T17:38:24.124Z,50.00
2023-01-03T17:40:36.956Z,51.40
2023-01-03T17:43:03.822Z,56.30
2023-01-03T17:45:49.346Z,55.10
2023-01-03T17:48:34.837Z,52.40
2023-01-03T17:51:02.153Z,54.30
2023-01-03T17:53:29.487Z,52.10
2023-01-03T17:55:56.305Z,56.20
2023-01-03T17:58:32.778Z,60.80
2023-01-03T18:01:00.059Z,61.30
2023-01-03T18:03:27.237Z,62.80
2023-01-03T18:05:54.391Z,63.20
2023-01-03T18:08:22.822Z,62.90
2023-01-03T18:10:51.808Z,63.30
2023-01-03T18:13:26.931Z,63.30
2023-01-03T18:15:54.990Z,63.50
2023-01-03T18:18:24.131Z,64.40
2023-01-03T18:20:51.665Z,64.30
2023-01-03T18:23:29.595Z,63.30
2023-01-03T18:26:02.827Z,64.90
2023-01-03T18:28:29.661Z,67.80
2023-01-03T18:30:57.265Z,67.20
2023-01-03T18:33:24.924Z,68.00
2023-01-03T18:35:52.923Z,68.10
2023-01-03T18:38:24.486Z,67.80
2023-01-03T18:40:53.432Z,68.70
2023-01-03T18:43:22.914Z,69.70
2023-01-03T18:45:50.642Z,70.00
2023-01-03T18:48:19.932Z,72.10
2023-01-03T18:50:55.679Z,72.70
2023-01-03T18:53:28.459Z,74.60
2023-01-03T18:55:55.547Z,77.20
2023-01-03T18:58:27.971Z,77.80
2023-01-03T19:00:54.700Z,80.50
2023-01-03T19:03:24.539Z,83.30
2023-01-03T19:05:53.995Z,86.00
2023-01-03T19:08:23.033Z,85.50
2023-01-03T19:10:50.484Z,84.70
2023-01-03T19:13:52.003Z,83.90
2023-01-03T19:16:26.628Z,82.10
2023-01-03T19:18:53.889Z,79.50
2023-01-03T19:21:21.961Z,80.80
2023-01-03T19:24:01.530Z,81.00
2023-01-03T19:26:35.619Z,79.50
2023-01-03T19:29:07.463Z,78.10
2023-01-03T19:31:45.965Z,80.00
2023-01-03T19:34:39.123Z,82.30
2023-01-03T19:37:05.928Z,82.50
2023-01-03T19:39:37.413Z,81.70
2023-01-03T19:42:24.395Z,80.50
2023-01-03T19:44:51.317Z,79.20
2023-01-03T19:47:20.523Z,78.50
2023-01-03T19:49:48.171Z,77.90
2023-01-03T19:52:16.461Z,77.70
2023-01-03T19:54:43.475Z,77.80
2023-01-03T19:57:21.083Z,80.40
2023-01-03T19:59:52.652Z,81.40
2023-01-03T20:02:40.791Z,82.10
2023-01-03T20:05:20.173Z,83.20
2023-01-03T20:07:47.877Z,82.40
2023-01-03T20:10:21.159Z,82.10
2023-01-03T20:12:50.177Z,84.20
2023-01-03T20:15:25.724Z,85.00
2023-01-03T20:17:53.170Z,85.50
2023-01-03T20:20:20.697Z,86.00
2023-01-03T20:23:06.381Z,87.10
2023-01-03T20:25:35.452Z,89.60
2023-01-03T20:28:03.179Z,90.10
2023-01-03T20:30:32.514Z,89.30
2023-01-03T20:32:59.350Z,88.60
2023-01-03T20:38:17.159Z,88.00
2023-01-03T20:40:43.879Z,90.20
2023-01-03T20:43:14.530Z,90.40
2023-01-03T20:45:41.513Z,90.80
2023-01-03T20:48:24.755Z,91.20
2023-01-03T20:50:52.616Z,91.40
2023-01-03T20:53:22.065Z,91.40
2023-01-03T20:55:49.400Z,91.30
2023-01-03T20:58:18.151Z,91.50
2023-01-03T21:00:45.777Z,91.40
2023-01-03T21:03:12.867Z,91.60
2023-01-03T21:05:39.844Z,91.50
2023-01-03T21:08:30.714Z,91.10
2023-01-03T21:10:57.492Z,91.00
2023-01-03T21:13:24.164Z,90.70
2023-01-03T21:15:51.336Z,90.70
2023-01-03T21:18:18.738Z,90.70
2023-01-03T21:20:45.972Z,90.90
2023-01-03T21:23:20.491Z,91.10
2023-01-03T21:25:47.498Z,91.50
2023-01-03T21:28:15.079Z,91.50
2023-01-03T21:30:42.489Z,91.40
2023-01-03T21:33:17.820Z,91.40
2023-01-03T21:35:44.846Z,91.60
2023-01-03T21:38:12.428Z,91.90
2023-01-03T21:40:39.155Z,92.00
2023-01-03T21:43:06.187Z,91.90
2023-01-03T21:45:39.749Z,92.00
2023-01-03T21:48:10.485Z,92.10
2023-01-03T21:50:42.750Z,92.20
2023-01-03T21:53:22.749Z,92.30
2023-01-03T21:55:50.314Z,92.40
2023-01-03T21:58:18.994Z,92.70
2023-01-03T22:00:45.826Z,92.80
2023-01-03T22:03:36.040Z,92.90
2023-01-03T22:06:11.225Z,93.00
2023-01-03T22:08:39.849Z,93.30
2023-01-03T22:11:08.003Z,93.40
2023-01-03T22:13:36.233Z,93.40
2023-01-03T22:16:07.837Z,93.50
2023-01-03T22:18:35.110Z,93.60
2023-01-03T22:21:03.471Z,93.80
2023-01-03T22:23:30.963Z,93.90
2023-01-03T22:26:02.611Z,94.00
2023-01-03T22:28:33.968Z,94.00
2023-01-03T22:31:00.840Z,94.10
2023-01-03T22:33:27.619Z,94.10
2023-01-03T22:35:54.289Z,94.10
2023-01-03T22:38:21.001Z,94.20
2023-01-03T22:40:47.752Z,94.10
2023-01-03T22:43:14.769Z,94.20
2023-01-03T22:45:41.545Z,94.20
2023-01-03T22:48:08.352Z,94.20
2023-01-03T22:50:35.090Z,94.20
2023-01-03T22:53:01.755Z,94.20
2023-01-03T22:55:32.234Z,94.20
2023-01-03T22:57:59.483Z,94.20
2023-01-03T23:00:26.190Z,94.20
2023-01-03T23:02:53.059Z,94.30
2023-01-03T23:05:20.454Z,94.30
2023-01-03T23:07:47.131Z,94.30
2023-01-03T23:10:13.972Z,94.30
2023-01-03T23:12:58.911Z,94.30
2023-01-03T23:15:28.536Z,94.30
2023-01-03T23:17:58.137Z,94.30
2023-01-03T23:20:31.553Z,94.30
2023-01-03T23:23:03.015Z,94.30
2023-01-03T23:25:35.609Z,94.30
2023-01-03T23:28:02.294Z,94.30
2023-01-03T23:30:29.085Z,94.30
2023-01-03T23:32:56.262Z,94.30
2023-01-03T23:35:23.026Z,94.30
2023-01-03T23:37:49.763Z,94.30
2023-01-03T23:40:16.655Z,94.30
2023-01-03T23:42:43.442Z,94.30
2023-01-03T23:45:10.595Z,94.30
2023-01-03T23:47:37.277Z,94.30
2023-01-03T23:50:04.236Z,94.30
2023-01-03T23:52:32.988Z,94.30
2023-01-03T23:55:02.623Z,94.30
2023-01-03T23:57:33.617Z,94.30
